Flight Track Log - Related Links

Times and Time Zones

All times are in EST time to prevent confusion due to time zone crossing. See the AFL150 flight status page for this flight to view local times or setup timezone preferences in your user account.

Time Position Orientation Groundspeed Altitude Reporting Facility
EST Latitude Longitude Course Direction KTS MPH feet Rate Location/Type
Fri 04:39:00 AM 56.1210 37.1973 318° Northwest  Level FlightAware Approximate
Fri 04:40:00 AM 56.2096 37.0519 318° Northwest  Level FlightAware Approximate
Fri 04:41:00 AM 56.2980 36.9059 318° Northwest  Level FlightAware Approximate
Fri 04:42:00 AM 56.3862 36.7592 317° Northwest  Level FlightAware Approximate
Fri 04:43:00 AM 56.4742 36.6118 317° Northwest  Level FlightAware Approximate
Fri 04:44:00 AM 56.5621 36.4637 317° Northwest  Level FlightAware Approximate
Fri 04:45:00 AM 56.6498 36.3150 317° Northwest  Level FlightAware Approximate
Fri 04:46:00 AM 56.7373 36.1655 317° Northwest  Level FlightAware Approximate
Fri 04:47:00 AM 56.8246 36.0154 317° Northwest  Level FlightAware Approximate
Fri 04:48:00 AM 56.9118 35.8645 317° Northwest  Level FlightAware Approximate
Fri 04:49:00 AM 56.9987 35.7130 317° Northwest  Level FlightAware Approximate
Fri 04:50:00 AM 57.0855 35.5607 316° Northwest  Level FlightAware Approximate
Fri 04:51:00 AM 57.1721 35.4077 316° Northwest  Level FlightAware Approximate
Fri 04:52:00 AM 57.2585 35.2540 316° Northwest  Level FlightAware Approximate
Fri 04:53:00 AM 57.3447 35.0996 316° Northwest  Level FlightAware Approximate
Fri 04:54:00 AM 57.4308 34.9444 316° Northwest  Level FlightAware Approximate
Fri 04:55:00 AM 57.5166 34.7886 316° Northwest  Level FlightAware Approximate
Fri 04:56:00 AM 57.6023 34.6320 316° Northwest  Level FlightAware Approximate
Fri 04:57:00 AM 57.6286 34.5787 314° West  Level FlightAware Approximate
Fri 04:58:00 AM 57.7115 34.4166 314° West  Level FlightAware Approximate
Fri 04:59:00 AM 57.7942 34.2537 314° West  Level FlightAware Approximate
Fri 05:00:00 AM 57.8767 34.0901 314° West  Level FlightAware Approximate
Fri 05:01:00 AM 57.9589 33.9257 313° West  Level FlightAware Approximate
Fri 05:02:00 AM 58.0410 33.7605 313° West  Level FlightAware Approximate
Fri 05:03:00 AM 58.1229 33.5946 313° West  Level FlightAware Approximate
Fri 05:04:00 AM 58.2045 33.4280 313° West  Level FlightAware Approximate
Fri 05:05:00 AM 58.2859 33.2605 313° West  Level FlightAware Approximate
Fri 05:06:00 AM 58.3671 33.0923 313° West  Level FlightAware Approximate
Fri 05:07:00 AM 58.4481 32.9234 313° West  Level FlightAware Approximate
Fri 05:08:00 AM 58.5289 32.7536 312° West  Level FlightAware Approximate
Fri 05:09:00 AM 58.6094 32.5831 312° West  Level FlightAware Approximate
Fri 05:10:00 AM 58.6897 32.4118 312° West  Level FlightAware Approximate
Fri 05:11:00 AM 58.7698 32.2396 312° West  Level FlightAware Approximate
Fri 05:12:00 AM 58.8496 32.0667 312° West  Level FlightAware Approximate
Fri 05:13:00 AM 58.9292 31.8930 312° West  Level FlightAware Approximate
Fri 05:14:00 AM 59.0086 31.7185 312° West  Level FlightAware Approximate
Fri 05:15:00 AM 59.0877 31.5432 311° West  Level FlightAware Approximate
Fri 05:16:00 AM 59.1666 31.3671 311° West  Level FlightAware Approximate
Fri 05:17:00 AM 59.2453 31.1901 311° West  Level FlightAware Approximate
Fri 05:18:00 AM 59.3237 31.0124 311° West  Level FlightAware Approximate
Fri 05:19:00 AM 59.4019 30.8338 311° West  Level FlightAware Approximate
Fri 05:20:00 AM 59.4795 30.6539 310° West  Level FlightAware Approximate
Fri 05:21:00 AM 59.5568 30.4730 310° West  Level FlightAware Approximate
Fri 05:22:00 AM 59.6339 30.2913 310° West  Level FlightAware Approximate
Fri 05:23:00 AM 59.7107 30.1087 310° West  Level FlightAware Approximate
Fri 05:24:00 AM 59.7872 29.9253 310° West  Level FlightAware Approximate
Fri 05:25:00 AM 59.8635 29.7411 310° West  Level FlightAware Approximate
Fri 05:26:00 AM 59.9395 29.5560 309° West  Level FlightAware Approximate
Fri 05:27:00 AM 60.0153 29.3701 309° West  Level FlightAware Approximate
Fri 05:28:00 AM 60.0908 29.1833 309° West  Level FlightAware Approximate
Fri 05:29:00 AM 60.1660 28.9956 309° West  Level FlightAware Approximate
Fri 05:30:00 AM 60.2409 28.8071 309° West  Level FlightAware Approximate
Fri 05:31:00 AM 60.3156 28.6178 309° West  Level FlightAware Approximate
Fri 05:32:00 AM 60.3901 28.4276 308° West  Level FlightAware Approximate
Fri 05:33:00 AM 60.4642 28.2365 308° West  Level FlightAware Approximate
Fri 05:34:00 AM 60.5381 28.0445 308° West  Level FlightAware Approximate
Fri 05:35:00 AM 60.6117 27.8516 308° West  Level FlightAware Approximate
Fri 05:36:00 AM 60.6850 27.6579 308° West  Level FlightAware Approximate
Fri 05:37:00 AM 60.7581 27.4633 308° West  Level FlightAware Approximate
Fri 05:38:00 AM 60.8308 27.2678 307° West  Level FlightAware Approximate
Fri 05:39:00 AM 60.9033 27.0714 307° West  Level FlightAware Approximate
Fri 05:40:00 AM 60.9755 26.8741 307° West  Level FlightAware Approximate
Fri 05:41:00 AM 61.0474 26.6759 307° West  Level FlightAware Approximate
Fri 05:42:00 AM 61.1190 26.4769 308° West  Level FlightAware Approximate
Fri 05:43:00 AM 61.1919 26.2794 308° West  Level FlightAware Approximate
Fri 05:44:00 AM 61.2645 26.0810 307° West  Level FlightAware Approximate
Fri 05:45:00 AM 61.3369 25.8817 307° West  Level FlightAware Approximate
Fri 05:46:00 AM 61.4089 25.6814 307° West  Level FlightAware Approximate
Fri 05:47:00 AM 61.4806 25.4802 307° West  Level FlightAware Approximate
Fri 05:48:00 AM 61.5521 25.2781 307° West  Level FlightAware Approximate
Fri 05:49:00 AM 61.6232 25.0750 306° West  Level FlightAware Approximate
Fri 05:50:00 AM 61.6934 24.8701 305° West  Level FlightAware Approximate
Fri 05:51:00 AM 61.7624 24.6629 305° West  Level FlightAware Approximate
Fri 05:52:00 AM 61.8311 24.4547 305° West  Level FlightAware Approximate
Fri 05:53:00 AM 61.8994 24.2456 305° West  Level FlightAware Approximate
Fri 05:54:00 AM 61.9674 24.0356 305° West  Level FlightAware Approximate
Fri 05:55:00 AM 62.0351 23.8246 304° West  Level FlightAware Approximate
Fri 05:56:00 AM 62.1025 23.6127 304° West  Level FlightAware Approximate
Fri 05:57:00 AM 62.1696 23.3999 304° West  Level FlightAware Approximate
Fri 05:58:00 AM 62.2363 23.1861 304° West  Level FlightAware Approximate
Fri 05:59:00 AM 62.3027 22.9713 304° West  Level FlightAware Approximate
Fri 06:00:00 AM 62.3688 22.7557 304° West  Level FlightAware Approximate
Fri 06:01:00 AM 62.4346 22.5390 303° West  Level FlightAware Approximate
Fri 06:02:00 AM 62.5000 22.3214 303° West  Level FlightAware Approximate
Fri 06:03:00 AM 62.5650 22.1029 303° West  Level FlightAware Approximate
Fri 06:04:00 AM 62.6297 21.8834 303° West  Level FlightAware Approximate
Fri 06:05:00 AM 62.6941 21.6630 302° West  Level FlightAware Approximate
Fri 06:06:00 AM 62.7582 21.4417 302° West  Level FlightAware Approximate
Fri 06:07:00 AM 62.8220 21.2195 302° West  Level FlightAware Approximate
Fri 06:08:00 AM 61.0188 22.5626 302° West 381 438 34,000  Level FlightAware ADS-B
Fri 06:10:40 AM 61.2867 21.5205 294° West 382 440 34,000  Level FlightAware ADS-B
Fri 06:11:38 AM 61.3338 21.3321 298° West 382 440 34,000  Level FlightAware ADS-B
Fri 06:12:40 AM 61.3830 21.1334 297° West 382 440 34,000 65 Level FlightAware ADS-B
Fri 06:19:21 AM 61.7762 19.9213 292° West 394 453 34,500 Climbing FlightAware ADS-B
Fri 06:21:00 AM 61.8489 19.5314 292° West  Level Estimated
Fri 06:22:00 AM 61.8997 19.2489 292° West  Level Estimated
Fri 06:23:00 AM 61.9427 19.0109 291° West  Level Estimated
Fri 06:24:00 AM 61.9853 18.7723 291° West  Level Estimated
Fri 06:25:00 AM 62.0275 18.5330 291° West  Level Estimated
Fri 06:26:00 AM 62.0693 18.2931 290° West  Level Estimated
Fri 06:27:00 AM 62.1106 18.0525 290° West  Level Estimated
Fri 06:28:00 AM 62.1516 17.8112 290° West  Level Estimated
Fri 06:29:00 AM 62.1921 17.5693 290° West  Level Estimated
Fri 06:30:00 AM 62.2321 17.3267 290° West  Level Estimated
Fri 06:31:00 AM 62.2718 17.0835 289° West  Level Estimated
Fri 06:32:00 AM 62.3110 16.8397 289° West  Level Estimated
Fri 06:33:00 AM 62.3498 16.5952 289° West  Level Estimated
Fri 06:34:00 AM 62.3882 16.3501 289° West  Level Estimated
Fri 06:35:00 AM 62.4261 16.1044 289° West  Level Estimated
Fri 06:36:00 AM 62.4636 15.8581 288° West  Level Estimated
Fri 06:37:00 AM 62.5007 15.6111 288° West  Level Estimated
Fri 06:38:00 AM 62.5374 15.3635 288° West  Level Estimated
Fri 06:39:00 AM 62.5736 15.1153 288° West  Level Estimated
Fri 06:40:00 AM 62.6093 14.8666 287° West  Level Estimated
Fri 06:41:00 AM 62.6446 14.6172 287° West  Level Estimated
Fri 06:42:00 AM 62.6795 14.3672 287° West  Level Estimated
Fri 06:43:00 AM 62.7139 14.1167 287° West  Level Estimated
Fri 06:44:00 AM 62.7479 13.8655 287° West  Level Estimated
Fri 06:45:00 AM 62.7814 13.6138 286° West  Level Estimated
Fri 06:46:00 AM 62.8145 13.3616 286° West  Level Estimated
Fri 06:47:00 AM 62.8472 13.1087 286° West  Level Estimated
Fri 06:48:00 AM 62.8793 12.8553 286° West  Level Estimated
Fri 06:49:00 AM 62.9110 12.6014 285° West  Level Estimated
Fri 06:50:00 AM 62.9423 12.3469 285° West  Level Estimated
Fri 06:51:00 AM 62.9731 12.0918 285° West  Level Estimated
Fri 06:52:00 AM 63.0034 11.8363 285° West  Level Estimated
Fri 06:53:00 AM 63.0333 11.5801 285° West  Level Estimated
Fri 06:54:00 AM 63.0627 11.3235 284° West  Level Estimated
Fri 06:55:00 AM 63.0917 11.0664 284° West  Level Estimated
Fri 06:56:00 AM 63.1202 10.8087 284° West  Level Estimated
Fri 06:57:00 AM 63.1482 10.5506 284° West  Level Estimated
Fri 06:58:00 AM 63.1757 10.2920 283° West  Level Estimated
Fri 06:59:00 AM 63.2028 10.0328 283° West  Level Estimated
Fri 07:00:00 AM 63.2294 9.7732 283° West  Level Estimated
Fri 07:01:00 AM 63.2555 9.5131 283° West  Level Estimated
Fri 07:02:00 AM 63.2812 9.2526 282° West  Level Estimated
Fri 07:03:00 AM 63.3063 8.9916 282° West  Level Estimated
Fri 07:04:00 AM 63.3310 8.7301 282° West  Level Estimated
Fri 07:05:00 AM 63.3553 8.4682 282° West  Level Estimated
Fri 07:06:00 AM 63.3790 8.2058 282° West  Level Estimated
Fri 07:07:00 AM 63.4022 7.9431 281° West  Level Estimated
Fri 07:08:00 AM 63.4250 7.6799 281° West  Level Estimated
Fri 07:09:00 AM 63.4473 7.4163 281° West  Level Estimated
Fri 07:10:00 AM 63.4691 7.1522 281° West  Level Estimated
Fri 07:11:00 AM 63.4904 6.8878 280° West  Level Estimated
Fri 07:12:00 AM 63.5112 6.6230 280° West  Level Estimated
Fri 07:13:00 AM 63.5316 6.3578 280° West  Level Estimated
Fri 07:14:00 AM 63.5514 6.0922 280° West  Level Estimated
Fri 07:15:00 AM 63.5708 5.8263 279° West  Level Estimated
Fri 07:16:00 AM 63.5896 5.5600 279° West  Level Estimated
Fri 07:17:00 AM 63.6080 5.2934 279° West  Level Estimated
Fri 07:18:00 AM 63.6259 5.0264 279° West  Level Estimated
Fri 07:19:00 AM 63.6433 4.7591 278° West  Level Estimated
Fri 07:20:00 AM 63.6601 4.4915 278° West  Level Estimated
Fri 07:21:00 AM 63.6765 4.2236 278° West  Level Estimated
Fri 07:22:00 AM 63.6924 3.9553 278° West  Level Estimated
Fri 07:23:00 AM 63.7078 3.6868 277° West  Level Estimated
Fri 07:24:00 AM 63.7227 3.4179 277° West  Level Estimated
Fri 07:25:00 AM 63.7371 3.1488 277° West  Level Estimated
Fri 07:26:00 AM 63.7510 2.8795 277° West  Level Estimated
Fri 07:27:00 AM 63.7643 2.6098 277° West  Level Estimated
Fri 07:28:00 AM 63.7772 2.3399 276° West  Level Estimated
Fri 07:29:00 AM 63.7896 2.0698 276° West  Level Estimated
Fri 07:30:00 AM 63.8015 1.7994 276° West  Level Estimated
Fri 07:31:00 AM 63.8128 1.5288 276° West  Level Estimated
Fri 07:32:00 AM 63.8237 1.2580 275° West  Level Estimated
Fri 07:33:00 AM 63.8340 0.9870 275° West  Level Estimated
Fri 07:34:00 AM 63.8439 0.7158 275° West  Level Estimated
Fri 07:35:00 AM 63.8532 0.4445 275° West  Level Estimated
Fri 07:36:00 AM 63.8620 0.1729 274° West  Level Estimated
Fri 07:37:00 AM 63.8703 -0.0988 274° West  Level Estimated
Fri 07:38:00 AM 63.8781 -0.3707 274° West  Level Estimated
Fri 07:39:00 AM 63.8854 -0.6427 274° West  Level Estimated
Fri 07:40:00 AM 63.8922 -0.9149 273° West  Level Estimated
Fri 07:41:00 AM 63.8985 -1.1872 273° West  Level Estimated
Fri 07:42:00 AM 63.9042 -1.4596 273° West  Level Estimated
Fri 07:43:00 AM 63.9095 -1.7321 273° West  Level Estimated
Fri 07:44:00 AM 63.9142 -2.0047 272° West  Level Estimated
Fri 07:45:00 AM 63.9184 -2.2774 272° West  Level Estimated
Fri 07:46:00 AM 63.9221 -2.5501 272° West  Level Estimated
Fri 07:47:00 AM 63.9253 -2.8230 272° West  Level Estimated
Fri 07:48:00 AM 63.9280 -3.0959 271° West  Level Estimated
Fri 07:49:00 AM 63.9302 -3.3688 271° West  Level Estimated
Fri 07:50:00 AM 63.9319 -3.6418 271° West  Level Estimated
Fri 07:51:00 AM 63.9330 -3.9148 271° West  Level Estimated
Fri 07:52:00 AM 63.9336 -4.1878 270° West  Level Estimated
Fri 07:53:00 AM 63.9337 -4.4609 270° West  Level Estimated
Fri 07:54:00 AM 63.9333 -4.7339 270° West  Level Estimated
Fri 07:55:00 AM 63.9324 -5.0069 270° West  Level Estimated
Fri 07:56:00 AM 63.9310 -5.2799 269° West  Level Estimated
Fri 07:57:00 AM 63.9291 -5.5529 269° West  Level Estimated
Fri 07:58:00 AM 63.9266 -5.8258 269° West  Level Estimated
Fri 07:59:00 AM 63.9237 -6.0987 269° West  Level Estimated
Fri 08:00:00 AM 63.9202 -6.3715 268° West  Level Estimated
Fri 08:01:00 AM 63.9162 -6.6442 268° West  Level Estimated
Fri 08:02:00 AM 63.9117 -6.9169 268° West  Level Estimated
Fri 08:03:00 AM 63.9067 -7.1894 268° West  Level Estimated
Fri 08:04:00 AM 63.9011 -7.4619 267° West  Level Estimated
Fri 08:05:00 AM 63.8951 -7.7342 267° West  Level Estimated
Fri 08:06:00 AM 63.8886 -8.0064 267° West  Level Estimated
Fri 08:07:00 AM 63.8815 -8.2785 267° West  Level Estimated
Fri 08:08:00 AM 63.8739 -8.5505 267° West  Level Estimated
Fri 08:09:00 AM 63.8658 -8.8223 266° West  Level Estimated
Fri 08:10:00 AM 63.8573 -9.0939 266° West  Level Estimated
Fri 08:11:00 AM 63.8482 -9.3653 266° West  Level Estimated
Fri 08:12:00 AM 63.8386 -9.6366 266° West  Level Estimated
Fri 08:13:00 AM 63.8284 -9.9077 265° West  Level Estimated
Fri 08:14:00 AM 63.8178 -10.1786 265° West  Level Estimated
Fri 08:15:00 AM 63.8067 -10.4493 265° West  Level Estimated
Fri 08:16:00 AM 63.7951 -10.7198 265° West  Level Estimated
Fri 08:17:00 AM 63.7829 -10.9900 264° West  Level Estimated
Fri 08:18:00 AM 63.7703 -11.2600 264° West  Level Estimated
Fri 08:19:00 AM 63.7571 -11.5297 264° West  Level Estimated
Fri 08:20:00 AM 63.7435 -11.7992 264° West  Level Estimated
Fri 08:21:00 AM 63.7293 -12.0685 263° West  Level Estimated
Fri 08:22:00 AM 63.7146 -12.3374 263° West  Level Estimated
Fri 08:23:00 AM 63.6995 -12.6061 263° West  Level Estimated
Fri 08:24:00 AM 63.6838 -12.8745 263° West  Level Estimated
Fri 08:25:00 AM 63.6677 -13.1426 262° West  Level Estimated
Fri 08:26:00 AM 63.6510 -13.4103 262° West  Level Estimated
Fri 08:27:00 AM 63.6339 -13.6778 262° West  Level Estimated
Fri 08:28:00 AM 63.6162 -13.9449 262° West  Level Estimated
Fri 08:29:00 AM 63.5981 -14.2117 261° West  Level Estimated
Fri 08:30:00 AM 63.5794 -14.4782 261° West  Level Estimated
Fri 08:31:00 AM 63.5603 -14.7442 261° West  Level Estimated
Fri 08:32:00 AM 63.5407 -15.0100 261° West  Level Estimated
Fri 08:33:00 AM 63.5206 -15.2753 260° West  Level Estimated
Fri 08:34:00 AM 63.5000 -15.5403 260° West  Level Estimated
Fri 08:35:00 AM 63.4789 -15.8049 260° West  Level Estimated
Fri 08:36:00 AM 63.4573 -16.0691 260° West  Level Estimated
Fri 08:37:00 AM 63.4352 -16.3329 260° West  Level Estimated
Fri 08:38:00 AM 63.4127 -16.5963 259° West  Level Estimated
Fri 08:39:00 AM 63.3897 -16.8593 259° West  Level Estimated
Fri 08:40:00 AM 63.3661 -17.1218 259° West  Level Estimated
Fri 08:41:00 AM 63.3421 -17.3839 259° West  Level Estimated
Fri 08:42:00 AM 63.3177 -17.6456 258° West  Level Estimated
Fri 08:43:00 AM 63.2927 -17.9068 258° West  Level Estimated
Fri 08:44:00 AM 63.2673 -18.1676 258° West  Level Estimated
Fri 08:45:00 AM 63.2414 -18.4279 258° West  Level Estimated
Fri 08:46:00 AM 63.2150 -18.6877 257° West  Level Estimated
Fri 08:47:00 AM 63.1881 -18.9470 257° West  Level Estimated
Fri 08:48:00 AM 63.1608 -19.2059 257° West  Level Estimated
Fri 08:49:00 AM 63.1330 -19.4643 257° West  Level Estimated
Fri 08:50:00 AM 63.1047 -19.7222 256° West  Level Estimated
Fri 08:51:00 AM 63.0760 -19.9795 256° West  Level Estimated
Fri 08:52:00 AM 63.0468 -20.2364 256° West  Level Estimated
Fri 08:53:00 AM 63.0171 -20.4927 256° West  Level Estimated
Fri 08:54:00 AM 62.9870 -20.7485 256° West  Level Estimated
Fri 08:55:00 AM 62.9564 -21.0038 255° West  Level Estimated
Fri 08:56:00 AM 62.9253 -21.2586 255° West  Level Estimated
Fri 08:57:00 AM 62.8938 -21.5128 255° West  Level Estimated
Fri 08:58:00 AM 62.8619 -21.7664 255° West  Level Estimated
Fri 08:59:00 AM 62.8294 -22.0195 254° West  Level Estimated
Fri 09:00:00 AM 62.7966 -22.2721 254° West  Level Estimated
Fri 09:01:00 AM 62.7633 -22.5240 254° West  Level Estimated
Fri 09:02:00 AM 62.7295 -22.7754 254° West  Level Estimated
Fri 09:03:00 AM 62.6953 -23.0263 254° West  Level Estimated
Fri 09:04:00 AM 62.6606 -23.2765 253° West  Level Estimated
Fri 09:05:00 AM 62.6255 -23.5261 253° West  Level Estimated
Fri 09:06:00 AM 62.5899 -23.7752 253° West  Level Estimated
Fri 09:07:00 AM 62.5539 -24.0236 253° West  Level Estimated
Fri 09:08:00 AM 62.5175 -24.2715 252° West  Level Estimated
Fri 09:09:00 AM 62.4806 -24.5187 252° West  Level Estimated
Fri 09:10:00 AM 62.4433 -24.7654 252° West  Level Estimated
Fri 09:11:00 AM 62.4056 -25.0114 252° West  Level Estimated
Fri 09:12:00 AM 62.3674 -25.2568 252° West  Level Estimated
Fri 09:13:00 AM 62.3288 -25.5015 251° West  Level Estimated
Fri 09:14:00 AM 62.2897 -25.7456 251° West  Level Estimated
Fri 09:15:00 AM 62.2503 -25.9891 251° West  Level Estimated
Fri 09:16:00 AM 62.2104 -26.2320 251° West  Level Estimated
Fri 09:17:00 AM 62.1701 -26.4742 250° West  Level Estimated
Fri 09:18:00 AM 62.1293 -26.7157 250° West  Level Estimated
Fri 09:19:00 AM 62.0882 -26.9567 250° West  Level Estimated
Fri 09:20:00 AM 62.0466 -27.1969 250° West  Level Estimated
Fri 09:21:00 AM 62.0046 -27.4365 250° West  Level Estimated
Fri 09:22:00 AM 61.9622 -27.6754 249° West  Level Estimated
Fri 09:23:00 AM 61.9194 -27.9137 249° West  Level Estimated
Fri 09:24:00 AM 61.8762 -28.1513 249° West  Level Estimated
Fri 09:25:00 AM 61.8326 -28.3882 249° West  Level Estimated
Fri 09:26:00 AM 61.7885 -28.6244 249° West  Level Estimated
Fri 09:27:00 AM 61.7441 -28.8600 248° West  Level Estimated
Fri 09:28:00 AM 61.6992 -29.0949 248° West  Level Estimated
Fri 09:29:00 AM 61.6540 -29.3291 248° West  Level Estimated
Fri 09:30:00 AM 61.6083 -29.5626 248° West  Level Estimated
Fri 09:31:00 AM 61.5623 -29.7954 248° West  Level Estimated
Fri 09:32:00 AM 61.5159 -30.0275 247° West  Level Estimated
Fri 09:33:00 AM 61.4690 -30.2590 247° West  Level Estimated
Fri 09:34:00 AM 61.4218 -30.4897 247° West  Level Estimated
Fri 09:35:00 AM 61.3742 -30.7197 247° West  Level Estimated
Fri 09:36:00 AM 61.3262 -30.9491 247° West  Level Estimated
Fri 09:37:00 AM 61.2778 -31.1777 246° West  Level Estimated
Fri 09:38:00 AM 61.2290 -31.4056 246° West  Level Estimated
Fri 09:39:00 AM 61.1799 -31.6328 246° West  Level Estimated
Fri 09:40:00 AM 61.1304 -31.8593 246° West  Level Estimated
Fri 09:41:00 AM 61.0789 -32.0919 246° West  Level Estimated
Fri 09:42:00 AM 61.0271 -32.3240 245° Southwest  Level Estimated
Fri 09:43:00 AM 60.9748 -32.5553 245° Southwest  Level Estimated
Fri 09:44:00 AM 60.9221 -32.7859 245° Southwest  Level Estimated
Fri 09:45:00 AM 60.8691 -33.0157 245° Southwest  Level Estimated
Fri 09:46:00 AM 60.8157 -33.2447 245° Southwest  Level Estimated
Fri 09:47:00 AM 60.7618 -33.4729 244° Southwest  Level Estimated
Fri 09:48:00 AM 60.7076 -33.7004 244° Southwest  Level Estimated
Fri 09:49:00 AM 60.6530 -33.9271 244° Southwest  Level Estimated
Fri 09:50:00 AM 60.5980 -34.1530 244° Southwest  Level Estimated
Fri 09:51:00 AM 60.5427 -34.3782 244° Southwest  Level Estimated
Fri 09:52:00 AM 60.4869 -34.6026 243° Southwest  Level Estimated
Fri 09:53:00 AM 60.4308 -34.8262 243° Southwest  Level Estimated
Fri 09:54:00 AM 60.3743 -35.0491 243° Southwest  Level Estimated
Fri 09:55:00 AM 60.3175 -35.2712 243° Southwest  Level Estimated
Fri 09:56:00 AM 60.2602 -35.4925 243° Southwest  Level Estimated
Fri 09:57:00 AM 60.2026 -35.7130 242° Southwest  Level Estimated
Fri 09:58:00 AM 60.1447 -35.9328 242° Southwest  Level Estimated
Fri 09:59:00 AM 60.0863 -36.1517 242° Southwest  Level Estimated
Fri 10:00:00 AM 60.0277 -36.3699 242° Southwest  Level Estimated
Fri 10:01:00 AM 59.9686 -36.5874 242° Southwest  Level Estimated
Fri 10:02:00 AM 59.9092 -36.8040 241° Southwest  Level Estimated
Fri 10:03:00 AM 59.8495 -37.0199 241° Southwest  Level Estimated
Fri 10:04:00 AM 59.7894 -37.2350 241° Southwest  Level Estimated
Fri 10:05:00 AM 59.7289 -37.4493 241° Southwest  Level Estimated
Fri 10:06:00 AM 59.6681 -37.6628 241° Southwest  Level Estimated
Fri 10:07:00 AM 59.6069 -37.8756 240° Southwest  Level Estimated
Fri 10:08:00 AM 59.5455 -38.0876 240° Southwest  Level Estimated
Fri 10:09:00 AM 59.4836 -38.2988 240° Southwest  Level Estimated
Fri 10:10:00 AM 59.4215 -38.5093 240° Southwest  Level Estimated
Fri 10:11:00 AM 59.3590 -38.7190 240° Southwest  Level Estimated
Fri 10:12:00 AM 59.2961 -38.9279 240° Southwest  Level Estimated
Fri 10:13:00 AM 59.2329 -39.1360 239° Southwest  Level Estimated
Fri 10:14:00 AM 59.1694 -39.3433 239° Southwest  Level Estimated
Fri 10:15:00 AM 59.1056 -39.5499 239° Southwest  Level Estimated
Fri 10:16:00 AM 59.0414 -39.7558 239° Southwest  Level Estimated
Fri 10:17:00 AM 58.9769 -39.9608 239° Southwest  Level Estimated
Fri 10:18:00 AM 58.9121 -40.1651 238° Southwest  Level Estimated
Fri 10:19:00 AM 58.8470 -40.3686 238° Southwest  Level Estimated
Fri 10:20:00 AM 58.7815 -40.5714 238° Southwest  Level Estimated
Fri 10:21:00 AM 58.7158 -40.7733 238° Southwest  Level Estimated
Fri 10:22:00 AM 58.6497 -40.9745 238° Southwest  Level Estimated
Fri 10:23:00 AM 58.5833 -41.1750 238° Southwest  Level Estimated
Fri 10:24:00 AM 58.5165 -41.3747 237° Southwest  Level Estimated
Fri 10:25:00 AM 58.4495 -41.5737 237° Southwest  Level Estimated
Fri 10:26:00 AM 58.3822 -41.7718 237° Southwest  Level Estimated
Fri 10:27:00 AM 58.3146 -41.9692 237° Southwest  Level Estimated
Fri 10:28:00 AM 58.2467 -42.1659 237° Southwest  Level Estimated
Fri 10:29:00 AM 58.1784 -42.3618 237° Southwest  Level Estimated
Fri 10:30:00 AM 58.1099 -42.5570 236° Southwest  Level Estimated
Fri 10:31:00 AM 58.0411 -42.7514 236° Southwest  Level Estimated
Fri 10:32:00 AM 57.9719 -42.9451 236° Southwest  Level Estimated
Fri 10:33:00 AM 57.9025 -43.1380 236° Southwest  Level Estimated
Fri 10:34:00 AM 57.8328 -43.3301 236° Southwest  Level Estimated
Fri 10:35:00 AM 57.7628 -43.5216 236° Southwest  Level Estimated
Fri 10:36:00 AM 57.6925 -43.7122 235° Southwest  Level Estimated
Fri 10:37:00 AM 57.6219 -43.9022 235° Southwest  Level Estimated
Fri 10:38:00 AM 57.5511 -44.0914 235° Southwest  Level Estimated
Fri 10:39:00 AM 57.4800 -44.2799 235° Southwest  Level Estimated
Fri 10:40:00 AM 57.4085 -44.4676 235° Southwest  Level Estimated
Fri 10:41:00 AM 57.3374 -44.6531 235° Southwest  Level Estimated
Fri 10:42:00 AM 57.2660 -44.8379 235° Southwest  Level Estimated
Fri 10:43:00 AM 57.1943 -45.0220 234° Southwest  Level Estimated
Fri 10:43:50 AM 63.6000 -57.5167 233° Southwest 220 253 36,000  Level Gander Center
Fri 10:44:00 AM 57.1224 -45.2055 234° Southwest  Level Estimated
Fri 10:44:50 AM 63.5500 -57.8000 248° West 440 506 36,000  Level Gander Center
Fri 10:45:00 AM 57.0501 -45.3882 234° Southwest  Level Estimated
Fri 10:45:50 AM 63.4833 -58.0500 239° Southwest 460 529 36,000  Level Gander Center
Fri 10:46:00 AM 56.9776 -45.5703 234° Southwest  Level Estimated
Fri 10:46:50 AM 63.4167 -58.2833 238° Southwest 460 529 36,000  Level Gander Center
Fri 10:47:00 AM 56.9049 -45.7516 234° Southwest  Level Estimated
Fri 10:47:50 AM 63.3833 -58.5500 255° West 460 529 36,000  Level Gander Center
Fri 10:48:00 AM 56.8318 -45.9322 234° Southwest  Level Estimated
Fri 10:48:50 AM 63.3167 -58.8167 241° Southwest 470 541 36,000  Level Gander Center
Fri 10:49:00 AM 56.7586 -46.1121 233° Southwest  Level Estimated
Fri 10:49:50 AM 63.2500 -59.0833 241° Southwest 470 541 36,000  Level Gander Center
Fri 10:50:50 AM 63.1667 -59.3333 234° Southwest 480 552 36,000  Level Gander Center
Fri 10:51:50 AM 63.1333 -59.5667 253° West 470 541 36,000  Level Gander Center
Fri 10:52:50 AM 63.0667 -59.8167 240° Southwest 470 541 36,000  Level Gander Center
Fri 10:53:50 AM 63.0000 -60.0833 241° Southwest 460 529 36,000  Level Gander Center
Fri 10:54:50 AM 62.9667 -60.3333 254° West 460 529 36,000  Level Gander Center
Fri 10:55:50 AM 62.9167 -60.6333 250° West 470 541 36,000  Level Gander Center
Fri 10:56:50 AM 62.8667 -60.8833 246° West 480 552 36,000  Level Gander Center
Fri 10:57:50 AM 62.8333 -61.1667 256° West 480 552 36,000  Level Gander Center
Fri 10:58:50 AM 62.7833 -61.4667 250° West 480 552 36,000  Level Gander Center
Fri 10:59:50 AM 62.7333 -61.7167 247° West 480 552 36,000  Level Gander Center
Fri 11:00:50 AM 62.7000 -62.0000 256° West 480 552 36,000  Level Gander Center
Fri 11:01:50 AM 62.6333 -62.2500 240° Southwest 480 552 36,000  Level Gander Center
Fri 11:02:50 AM 62.6000 -62.5500 257° West 490 564 36,000  Level Gander Center
Fri 11:03:50 AM 62.5500 -62.8333 249° West 490 564 36,000  Level Gander Center
Fri 11:04:50 AM 62.4833 -63.0833 240° Southwest 490 564 36,000  Level Gander Center
Fri 11:05:50 AM 62.3833 -63.3167 227° Southwest 490 564 36,000  Level Gander Center
Fri 11:06:50 AM 62.2833 -63.5333 225° Southwest 500 575 36,000  Level Gander Center
Fri 11:07:50 AM 62.2000 -63.7333 228° Southwest 490 564 36,000  Level Gander Center
Fri 11:08:50 AM 62.1167 -63.9833 235° Southwest 500 575 36,000  Level Gander Center
Fri 11:09:50 AM 62.0167 -64.1833 223° Southwest 490 564 36,000  Level Gander Center
Fri 11:10:50 AM 61.9333 -64.3833 229° Southwest 500 575 36,000  Level Gander Center
Fri 11:11:50 AM 61.8333 -64.6167 228° Southwest 500 575 36,000  Level Gander Center
Fri 11:12:50 AM 61.7333 -64.8167 223° Southwest 490 564 36,000  Level Gander Center
Fri 11:13:50 AM 61.6500 -65.0167 229° Southwest 500 575 36,000  Level Gander Center
Fri 11:15:19 AM 61.4833 -65.2833 217° Southwest 500 575 36,000  Level Montreal Center
Fri 11:15:50 AM 61.4500 -65.4500 247° West 500 575 36,000  Level Gander Center
Fri 11:16:50 AM 61.3667 -65.6833 233° Southwest 510 587 36,000  Level Gander Center
Fri 11:17:50 AM 61.2500 -65.8833 220° Southwest 520 598 36,000  Level Gander Center
Fri 11:18:50 AM 61.1667 -66.0667 227° Southwest 490 564 36,000  Level Gander Center
Fri 11:19:50 AM 61.0833 -66.2667 229° Southwest 490 564 36,000  Level Gander Center
Fri 11:20:50 AM 60.9667 -66.4833 222° Southwest 490 564 36,000  Level Gander Center
Fri 11:21:50 AM 60.8833 -66.6833 229° Southwest 490 564 36,000  Level Gander Center
Fri 11:22:50 AM 60.7833 -66.8667 222° Southwest 490 564 36,000  Level Gander Center
Fri 11:23:50 AM 60.6833 -67.0500 222° Southwest 480 552 36,000  Level Gander Center
Fri 11:24:50 AM 60.5833 -67.1667 210° Southwest 480 552 36,000  Level Gander Center
Fri 11:25:50 AM 60.4500 -67.3167 209° Southwest 480 552 36,000  Level Gander Center
Fri 11:26:50 AM 60.3500 -67.4333 210° Southwest 470 541 36,000  Level Gander Center
Fri 11:27:50 AM 60.2167 -67.5833 209° Southwest 470 541 36,000  Level Gander Center
Fri 11:29:19 AM 60.0667 -67.7000 201° Southwest 460 529 36,000  Level Montreal Center
Fri 11:30:19 AM 59.9500 -67.8333 210° Southwest 460 529 36,000  Level Montreal Center
Fri 11:31:19 AM 59.8500 -67.9500 210° Southwest 460 529 36,000  Level Montreal Center
Fri 11:32:19 AM 59.7333 -68.0833 210° Southwest 470 541 36,000  Level Montreal Center
Fri 11:33:19 AM 59.6167 -68.2167 210° Southwest 460 529 36,000  Level Montreal Center
Fri 11:34:19 AM 59.5167 -68.3333 211° Southwest 460 529 36,000  Level Montreal Center
Fri 11:35:19 AM 59.3833 -68.4667 207° Southwest 460 529 36,000  Level Montreal Center
Fri 11:36:19 AM 59.2667 -68.5833 207° Southwest 460 529 36,000  Level Montreal Center
Fri 11:37:19 AM 59.1667 -68.7000 211° Southwest 450 518 36,000  Level Montreal Center
Fri 11:38:19 AM 59.0500 -68.8333 210° Southwest 460 529 36,000  Level Montreal Center
Fri 11:39:19 AM 58.9333 -68.9500 207° Southwest 450 518 36,000  Level Montreal Center
Fri 11:40:19 AM 58.8333 -69.0667 211° Southwest 460 529 36,000  Level Montreal Center
Fri 11:41:19 AM 58.7167 -69.1833 207° Southwest 460 529 36,000  Level Montreal Center
Fri 11:42:19 AM 58.6000 -69.3000 208° Southwest 460 529 36,000  Level Montreal Center
Fri 11:43:19 AM 58.5000 -69.4167 211° Southwest 450 518 36,000  Level Montreal Center
Fri 11:44:19 AM 58.4000 -69.5000 204° Southwest 450 518 36,000  Level Montreal Center
Fri 11:45:19 AM 58.2667 -69.6500 211° Southwest 450 518 36,000  Level Montreal Center
Fri 11:46:19 AM 58.1500 -69.7333 201° Southwest 450 518 36,000  Level Montreal Center
Fri 11:47:19 AM 58.0667 -69.8500 217° Southwest 450 518 36,000  Level Montreal Center
Fri 11:48:19 AM 57.9500 -69.9667 208° Southwest 450 518 36,000  Level Montreal Center
Fri 11:49:19 AM 57.8333 -70.0833 208° Southwest 450 518 36,000  Level Montreal Center
Fri 11:50:19 AM 57.7167 -70.2000 208° Southwest 450 518 36,000  Level Montreal Center
Fri 11:51:19 AM 57.6000 -70.3000 205° Southwest 450 518 36,000  Level Montreal Center
Fri 11:52:19 AM 57.5167 -70.4167 217° Southwest 440 506 36,000  Level Montreal Center
Fri 11:53:19 AM 57.4000 -70.5333 208° Southwest 440 506 36,000  Level Montreal Center
Fri 11:54:19 AM 57.2833 -70.6333 205° Southwest 440 506 36,000  Level Montreal Center
Fri 11:55:19 AM 57.1667 -70.7500 208° Southwest 440 506 36,000  Level Montreal Center
Fri 11:56:19 AM 57.0500 -70.8167 197° South 440 506 36,000  Level Montreal Center
Fri 11:57:19 AM 56.9500 -70.9333 212° Southwest 440 506 36,000  Level Montreal Center
Fri 11:58:19 AM 56.8500 -71.0333 209° Southwest 440 506 36,000  Level Montreal Center
Fri 11:59:19 AM 56.7333 -71.1500 209° Southwest 450 518 36,000  Level Montreal Center
Fri 12:00:19 PM 56.6167 -71.2500 205° Southwest 440 506 36,000  Level Montreal Center
Fri 12:01:19 PM 56.5000 -71.3500 205° Southwest 440 506 36,000  Level Montreal Center
Fri 12:02:19 PM 56.4000 -71.4333 205° Southwest 440 506 36,000  Level Montreal Center
Fri 12:03:19 PM 56.2833 -71.5333 205° Southwest 440 506 36,000  Level Montreal Center
Fri 12:04:19 PM 56.1833 -71.6333 209° Southwest 440 506 36,000  Level Montreal Center
Fri 12:05:19 PM 56.0667 -71.7333 206° Southwest 440 506 36,000  Level Montreal Center
Fri 12:06:19 PM 55.9667 -71.8333 209° Southwest 440 506 36,000  Level Montreal Center
Fri 12:07:19 PM 55.8500 -71.9167 202° Southwest 440 506 36,000  Level Montreal Center
Fri 12:08:19 PM 55.7333 -72.0167 206° Southwest 440 506 36,000  Level Montreal Center
Fri 12:09:19 PM 55.6167 -72.1167 206° Southwest 440 506 36,000  Level Montreal Center
Fri 12:10:19 PM 55.5000 -72.2167 206° Southwest 440 506 36,000  Level Montreal Center
Fri 12:11:19 PM 55.4000 -72.3167 210° Southwest 430 495 36,000  Level Montreal Center
Fri 12:12:19 PM 55.2833 -72.4167 206° Southwest 430 495 36,000  Level Montreal Center
Fri 12:13:19 PM 55.1833 -72.5167 210° Southwest 440 506 36,000  Level Montreal Center
Fri 12:14:19 PM 55.0833 -72.5833 201° Southwest 430 495 36,000  Level Montreal Center
Fri 12:15:19 PM 54.9667 -72.6833 206° Southwest 430 495 36,000  Level Montreal Center
Fri 12:16:19 PM 54.8667 -72.7667 206° Southwest 430 495 36,000  Level Montreal Center
Fri 12:17:19 PM 54.7500 -72.8667 206° Southwest 430 495 36,000  Level Montreal Center
Fri 12:18:19 PM 54.6500 -72.9333 201° Southwest 430 495 36,000  Level Montreal Center
Fri 12:19:19 PM 54.5333 -73.0333 206° Southwest 430 495 36,000  Level Montreal Center
Fri 12:20:19 PM 54.4167 -73.1333 207° Southwest 430 495 36,000  Level Montreal Center
Fri 12:21:19 PM 54.3167 -73.2167 206° Southwest 430 495 36,000  Level Montreal Center
Fri 12:22:19 PM 54.2000 -73.3167 207° Southwest 430 495 36,000  Level Montreal Center
Fri 12:23:19 PM 54.0833 -73.3833 199° South 430 495 36,000  Level Montreal Center
Fri 12:24:19 PM 53.9833 -73.4667 206° Southwest 430 495 36,000  Level Montreal Center
Fri 12:25:19 PM 53.8667 -73.5667 207° Southwest 430 495 36,000  Level Montreal Center
Fri 12:26:19 PM 53.7667 -73.6500 206° Southwest 420 483 36,000  Level Montreal Center
Fri 12:27:19 PM 53.6500 -73.7500 207° Southwest 430 495 36,000  Level Montreal Center
Fri 12:28:19 PM 53.5500 -73.8333 206° Southwest 420 483 36,000  Level Montreal Center
Fri 12:29:19 PM 53.4500 -73.9333 211° Southwest 420 483 36,000  Level Montreal Center
Fri 12:30:19 PM 53.3333 -73.9833 194° South 420 483 36,000  Level Montreal Center
Fri 12:31:19 PM 53.2333 -74.0833 211° Southwest 430 495 36,000  Level Montreal Center
Fri 12:32:19 PM 53.1167 -74.1667 203° Southwest 430 495 36,000  Level Montreal Center
Fri 12:33:19 PM 53.0167 -74.2500 207° Southwest 430 495 36,000  Level Montreal Center
Fri 12:34:19 PM 52.9167 -74.3500 211° Southwest 420 483 36,000  Level Montreal Center
Fri 12:35:19 PM 52.8167 -74.4667 215° Southwest 420 483 36,000  Level Montreal Center
Fri 12:36:19 PM 52.7167 -74.5167 197° South 420 483 36,000  Level Montreal Center
Fri 12:37:19 PM 52.6000 -74.6333 211° Southwest 420 483 36,000  Level Montreal Center
Fri 12:38:19 PM 52.4833 -74.7000 199° South 430 495 36,000  Level Montreal Center
Fri 12:39:19 PM 52.3667 -74.7833 204° Southwest 420 483 36,000  Level Montreal Center
Fri 12:40:19 PM 52.2667 -74.8667 207° Southwest 420 483 36,000  Level Montreal Center
Fri 12:41:19 PM 52.1667 -74.9500 207° Southwest 420 483 36,000  Level Montreal Center
Fri 12:42:19 PM 52.0500 -75.0333 204° Southwest 420 483 36,000  Level Montreal Center
Fri 12:43:19 PM 51.9500 -75.1167 207° Southwest 420 483 36,000  Level Montreal Center
Fri 12:44:19 PM 51.8333 -75.2000 204° Southwest 420 483 36,000  Level Montreal Center
Fri 12:45:19 PM 51.7333 -75.2833 207° Southwest 420 483 36,000  Level Montreal Center
Fri 12:46:19 PM 51.6333 -75.3667 207° Southwest 420 483 36,000  Level Montreal Center
Fri 12:47:19 PM 51.5333 -75.4500 207° Southwest 420 483 36,000  Level Montreal Center
Fri 12:48:19 PM 51.4167 -75.5333 204° Southwest 420 483 36,000  Level Montreal Center
Fri 12:49:19 PM 51.3167 -75.6167 208° Southwest 420 483 36,000  Level Montreal Center
Fri 12:50:19 PM 51.2000 -75.7000 204° Southwest 420 483 36,000  Level Montreal Center
Fri 12:51:19 PM 51.1000 -75.7833 208° Southwest 420 483 36,000  Level Montreal Center
Fri 12:52:19 PM 50.9833 -75.8500 200° South 420 483 36,000  Level Montreal Center
Fri 12:53:19 PM 50.8833 -75.9333 208° Southwest 420 483 36,000  Level Montreal Center
Fri 12:54:19 PM 50.7667 -76.0167 204° Southwest 420 483 36,000  Level Montreal Center
Fri 12:55:19 PM 50.6667 -76.1000 208° Southwest 420 483 36,000  Level Montreal Center
Fri 12:56:19 PM 50.5667 -76.1833 208° Southwest 420 483 36,000  Level Montreal Center
Fri 12:57:19 PM 50.4667 -76.2500 203° Southwest 420 483 36,000  Level Montreal Center
Fri 12:58:19 PM 50.3500 -76.3333 205° Southwest 420 483 36,000  Level Montreal Center
Fri 12:59:19 PM 50.2500 -76.4167 208° Southwest 420 483 36,000  Level Montreal Center
Fri 01:00:19 PM 50.1500 -76.4833 203° Southwest 420 483 36,000  Level Montreal Center
Fri 01:01:19 PM 50.0167 -76.5667 202° Southwest 420 483 36,000  Level Montreal Center
Fri 01:02:19 PM 49.9167 -76.6167 198° South 420 483 36,000  Level Montreal Center
Fri 01:03:19 PM 49.8000 -76.7167 209° Southwest 420 483 36,000  Level Montreal Center
Fri 01:04:19 PM 49.7000 -76.7667 198° South 420 483 36,000  Level Montreal Center
Fri 01:05:19 PM 49.6000 -76.8500 208° Southwest 420 483 36,000  Level Montreal Center
Fri 01:06:19 PM 49.5000 -76.9167 203° Southwest 410 472 36,000  Level Montreal Center
Fri 01:07:19 PM 49.3833 -77.0000 205° Southwest 440 506 36,000  Level Montreal Center
Fri 01:08:19 PM 49.2833 -77.0667 204° Southwest 410 472 36,000  Level Montreal Center
Fri 01:09:19 PM 49.1833 -77.1500 209° Southwest 410 472 36,000  Level Montreal Center
Fri 01:11:19 PM 48.9667 -77.3000 204° Southwest 420 483 36,000  Level Montreal Center
Fri 01:12:19 PM 48.8500 -77.3667 201° Southwest 420 483 36,000  Level Montreal Center
Fri 01:13:19 PM 48.7500 -77.4500 209° Southwest 420 483 36,000  Level Montreal Center
Fri 01:14:19 PM 48.6333 -77.5167 201° Southwest 420 483 36,000  Level Montreal Center
Fri 01:15:19 PM 48.5333 -77.5833 204° Southwest 420 483 36,000  Level Montreal Center
Fri 01:16:19 PM 48.4167 -77.6667 205° Southwest 420 483 36,000  Level Montreal Center
Fri 01:17:19 PM 48.3167 -77.7333 204° Southwest 430 495 36,000  Level Montreal Center
Fri 01:18:19 PM 48.2167 -77.8000 204° Southwest 430 495 36,000  Level Montreal Center
Fri 01:19:19 PM 48.1000 -77.8833 206° Southwest 430 495 36,000  Level Montreal Center
Fri 01:20:19 PM 47.9667 -77.9167 190° South 430 495 36,000  Level Montreal Center
Fri 01:21:19 PM 47.8500 -78.0000 206° Southwest 430 495 36,000  Level Montreal Center
Fri 01:22:19 PM 47.7500 -78.0667 204° Southwest 430 495 36,000  Level Montreal Center
Fri 01:23:19 PM 47.6333 -78.1333 201° Southwest 430 495 36,000  Level Montreal Center
Fri 01:24:19 PM 47.5333 -78.2000 204° Southwest 430 495 36,000  Level Montreal Center
Fri 01:25:19 PM 47.4167 -78.2667 201° Southwest 430 495 36,000  Level Montreal Center
Fri 01:26:19 PM 47.3000 -78.3167 196° South 430 495 36,000  Level Montreal Center
Fri 01:27:19 PM 47.2000 -78.3833 204° Southwest 430 495 36,000  Level Montreal Center
Fri 01:28:19 PM 47.0667 -78.4500 199° South 420 483 36,000  Level Montreal Center
Fri 01:29:19 PM 46.9667 -78.5333 210° Southwest 430 495 36,000  Level Montreal Center
Fri 01:30:19 PM 46.8500 -78.6000 201° Southwest 430 495 36,000  Level Montreal Center
Fri 01:31:19 PM 46.7500 -78.6333 193° South 430 495 36,000  Level Montreal Center
Fri 01:32:19 PM 46.6333 -78.7000 201° Southwest 430 495 36,000  Level Montreal Center
Fri 01:33:19 PM 46.5167 -78.7667 201° Southwest 430 495 36,000  Level Montreal Center
Fri 01:34:19 PM 46.4167 -78.8333 205° Southwest 420 483 36,000  Level Montreal Center
Fri 01:35:19 PM 46.3000 -78.8833 196° South 420 483 36,000  Level Montreal Center
Fri 01:36:23 PM 46.1833 -78.9333 197° South 420 483 36,000  Level Toronto Center
Fri 01:40:48 PM 45.7460 -79.1843 197° South 411 473 36,000  Level FlightAware ADS-B
Fri 01:41:49 PM 45.8113 -79.1494 20° North 411 473 36,000  Level FlightAware ADS-B
Fri 01:43:13 PM 45.4852 -79.3231 200° South 413 475 36,000  Level FlightAware ADS-B
Fri 01:43:52 PM 45.4188 -79.3582 200° South 413 475 36,000  Level FlightAware ADS-B
Fri 01:44:26 PM 45.4208 -79.3571 20° North 412 474 36,000  Level FlightAware ADS-B
Fri 01:45:12 PM 45.2683 -79.4374 200° South 416 479 36,000  Level FlightAware ADS-B
Fri 01:47:09 PM 45.0353 -79.5592 200° South 415 478 36,000  Level FlightAware ADS-B
Fri 01:47:40 PM 44.9861 -79.5850 200° South 415 478 36,000  Level FlightAware ADS-B
Fri 01:48:20 PM 44.9652 -79.5959 200° South 415 478 36,000  Level FlightAware ADS-B
Fri 01:49:10 PM 44.8028 -79.6797 200° South 415 478 36,000  Level FlightAware ADS-B (EPLB / LUZ)
Fri 01:49:53 PM 44.7298 -79.7173 200° South 414 476 36,000  Level FlightAware ADS-B (EPLB / LUZ)
Fri 01:50:33 PM 44.6546 -79.7559 200° South 411 473 36,000  Level FlightAware ADS-B (EPLB / LUZ)
Fri 01:51:06 PM 44.6059 -79.7817 201° Southwest 399 459 36,000  Level FlightAware ADS-B
Fri 01:51:47 PM 44.5621 -79.8114 206° Southwest 390 449 36,000  Level FlightAware ADS-B
Fri 01:52:25 PM 44.4786 -79.8862 213° Southwest 393 452 36,000  Level FlightAware ADS-B (EPLB / LUZ)
Fri 01:55:14 PM 44.2157 -80.1225 213° Southwest 391 450 36,000  Level FlightAware ADS-B (CYKF)
Fri 01:55:54 PM 44.1560 -80.1758 213° Southwest 394 453 36,000  Level FlightAware ADS-B (EPLB / LUZ)
Fri 01:56:57 PM 44.0638 -80.2577 213° Southwest 396 456 36,000  Level FlightAware ADS-B (CYKF)
Fri 01:57:29 PM 44.0121 -80.3035 212° Southwest 395 455 36,000  Level FlightAware ADS-B (EPLB / LUZ)
Fri 01:58:09 PM 43.9472 -80.3606 212° Southwest 393 452 36,000  Level FlightAware ADS-B (EPLB / LUZ)
Fri 01:58:52 PM 43.8857 -80.4151 213° Southwest 393 452 36,000  Level FlightAware ADS-B (EPLB / LUZ)
Fri 01:59:34 PM 43.8195 -80.4733 212° Southwest 393 452 36,000  Level FlightAware ADS-B (CYKF)
Fri 02:00:29 PM 43.7333 -80.5489 212° Southwest 394 453 36,000  Level FlightAware ADS-B (CYKF)
Fri 02:01:13 PM 43.7509 -80.5334 32° Northeast 395 455 36,000  Level FlightAware ADS-B (EPLB / LUZ)
Fri 02:02:11 PM 43.6092 -80.6572 212° Southwest 394 453 36,000  Level FlightAware ADS-B (EPLB / LUZ)
Fri 02:02:53 PM 43.5124 -80.7412 212° Southwest 394 453 36,000  Level FlightAware ADS-B (EPLB / LUZ)
Fri 02:03:28 PM 43.4626 -80.7844 212° Southwest 393 452 36,000  Level FlightAware ADS-B (EPLB / LUZ)
Fri 02:04:11 PM 43.4086 -80.8312 212° Southwest 394 453 36,000  Level FlightAware ADS-B (CYKF)
Fri 02:04:41 PM 43.3499 -80.8817 212° Southwest 395 455 36,000  Level FlightAware ADS-B (EPLB / LUZ)
Fri 02:05:53 PM 43.2376 -80.9784 212° Southwest 394 453 36,000  Level FlightAware ADS-B (EPLB / LUZ)
Fri 02:06:33 PM 43.1913 -81.0180 212° Southwest 394 453 36,000  Level FlightAware ADS-B (EPLB / LUZ)
Fri 02:07:17 PM 43.1081 -81.0892 212° Southwest 391 450 36,000  Level FlightAware ADS-B (CYKF)
Fri 02:07:51 PM 43.0528 -81.1361 212° Southwest 387 445 36,000  Level FlightAware ADS-B (CYKF)
Fri 02:08:37 PM 43.0528 -81.1361 212° Southwest 392 451 36,000  Level FlightAware ADS-B (CYKF)
Fri 02:09:36 PM 42.9077 -81.2292 205° Southwest 388 447 36,000  Level FlightAware ADS-B (CYKF)
Fri 02:10:11 PM 42.8399 -81.2714 205° Southwest 388 447 36,000  Level FlightAware ADS-B (EPLB / LUZ)
Fri 02:10:44 PM 42.7758 -81.3108 204° Southwest 389 448 36,000  Level FlightAware ADS-B (EPLB / LUZ)
Fri 02:11:22 PM 42.7084 -81.3523 204° Southwest 390 449 36,000  Level FlightAware ADS-B (EPLB / LUZ)
Fri 02:11:56 PM 42.6533 -81.3861 204° Southwest 392 451 36,000  Level FlightAware ADS-B (CYKF)
Fri 02:12:28 PM 42.6533 -81.3861 204° Southwest 395 455 36,000  Level FlightAware ADS-B (CYKF)
Fri 02:13:12 PM 42.5271 -81.4632 204° Southwest 400 460 36,000  Level FlightAware ADS-B (EPLB / LUZ)
Fri 02:13:49 PM 42.4641 -81.5016 204° Southwest 405 466 36,000  Level FlightAware ADS-B (CYKF)
Fri 02:15:10 PM 42.3290 -81.5835 204° Southwest 407 468 36,000  Level FlightAware ADS-B (EPLB / LUZ)
Fri 02:15:50 PM 42.2631 -81.6236 204° Southwest 406 467 36,000  Level Cleveland Center
Fri 02:16:52 PM 42.1586 -81.6875 204° Southwest 409 471 36,000  Level Cleveland Center
Fri 02:17:54 PM 42.0531 -81.7497 204° Southwest 410 472 36,000  Level Cleveland Center
Fri 02:18:56 PM 41.9492 -81.8114 204° Southwest 406 467 36,000  Level Cleveland Center
Fri 02:19:58 PM 41.8453 -81.8736 204° Southwest 405 466 36,000  Level Cleveland Center
Fri 02:21:00 PM 41.7239 -81.9467 204° Southwest 407 468 36,000  Level Cleveland Center
Fri 02:22:02 PM 41.6203 -82.0058 203° Southwest 404 465 36,000  Level Cleveland Center
Fri 02:23:04 PM 41.5194 -82.0661 204° Southwest 398 458 36,000  Level Cleveland Center
Fri 02:24:06 PM 41.4197 -82.1250 204° Southwest 393 452 36,000  Level Cleveland Center
Fri 02:25:08 PM 41.3175 -82.1767 201° Southwest 394 453 36,000  Level Cleveland Center
Fri 02:26:10 PM 41.2072 -82.2150 195° South 405 466 36,000  Level Cleveland Center
Fri 02:27:12 PM 41.0783 -82.2617 195° South 408 470 36,000  Level Cleveland Center
Fri 02:28:15 PM 40.9689 -82.3011 195° South 406 467 36,000  Level Cleveland Center
Fri 02:29:17 PM 40.8608 -82.3397 195° South 401 461 36,000  Level Cleveland Center
Fri 02:30:19 PM 40.7525 -82.3775 195° South 399 459 36,000  Level Cleveland Center
Fri 02:31:09 PM 40.6606 -82.4094 195° South 402 463 36,000  Level Indianapolis Center
Fri 02:32:11 PM 40.5511 -82.4481 195° South 403 464 36,000  Level Indianapolis Center
Fri 02:37:54 PM 40.1152 -82.5900 195° South 420 483 36,000  Level FlightAware ADS-B
Fri 02:39:22 PM 39.7147 -82.6179 183° South 425 489 36,000  Level FlightAware ADS-B
Fri 02:40:11 PM 39.6161 -82.6246 183° South 422 486 36,000  Level FlightAware ADS-B
Fri 02:40:53 PM 39.5372 -82.6300 183° South 420 483 36,000  Level FlightAware ADS-B
Fri 02:41:37 PM 39.4493 -82.6359 183° South 420 483 36,000  Level FlightAware ADS-B
Fri 02:42:17 PM 39.3732 -82.6410 183° South 420 483 36,000  Level FlightAware ADS-B
Fri 02:42:51 PM 39.3077 -82.6452 183° South 418 481 36,000  Level FlightAware ADS-B
Fri 02:43:31 PM 39.2327 -82.6503 183° South 419 482 36,000  Level FlightAware ADS-B
Fri 02:44:04 PM 39.1739 -82.6543 183° South 422 486 36,000  Level FlightAware ADS-B
Fri 02:44:43 PM 39.0895 -82.6599 183° South 424 488 36,000  Level FlightAware ADS-B
Fri 02:45:17 PM 39.0258 -82.6641 183° South 423 487 36,000  Level FlightAware ADS-B
Fri 02:45:56 PM 38.9476 -82.6691 183° South 422 486 36,000  Level FlightAware ADS-B
Fri 02:46:30 PM 38.8817 -82.6734 183° South 420 483 36,000  Level FlightAware ADS-B
Fri 02:47:10 PM 38.8065 -82.6784 183° South 420 483 36,000  Level FlightAware ADS-B
Fri 02:47:43 PM 38.7436 -82.6826 183° South 421 484 36,000  Level FlightAware ADS-B
Fri 02:48:22 PM 38.6676 -82.6876 183° South 421 484 36,000  Level FlightAware ADS-B
Fri 02:49:16 PM 38.6305 -82.6899 183° South 414 476 36,000  Level FlightAware ADS-B
Fri 02:50:49 PM 38.4039 -82.7053 183° South 412 474 36,000  Level Indianapolis Center
Fri 02:51:52 PM 38.2911 -82.7133 183° South 406 467 36,000  Level Indianapolis Center
Fri 02:52:54 PM 38.1597 -82.7217 183° South 405 466 36,000  Level Indianapolis Center
Fri 02:53:54 PM 38.0447 -82.7272 182° South 410 472 36,000  Level Indianapolis Center
Fri 02:54:58 PM 37.9317 -82.7350 183° South 407 468 36,000  Level Indianapolis Center
Fri 02:55:58 PM 37.8208 -82.7442 184° South 402 463 36,000  Level Indianapolis Center
Fri 02:57:02 PM 37.7114 -82.7547 184° South 395 455 36,000  Level Indianapolis Center
Fri 02:58:02 PM 37.6000 -82.8025 199° South 364 419 36,000  Level Indianapolis Center
Fri 02:59:06 PM 37.5131 -82.8614 208° Southwest 355 409 36,000  Level Indianapolis Center
Fri 03:00:06 PM 37.4267 -82.9183 208° Southwest 351 404 36,000  Level Indianapolis Center
Fri 03:01:10 PM 37.3392 -82.9750 207° Southwest 352 405 36,000  Level Indianapolis Center
Fri 03:02:10 PM 37.2533 -83.0317 208° Southwest 352 405 36,000  Level Indianapolis Center
Fri 03:03:14 PM 37.1519 -83.0978 207° Southwest 353 406 36,000  Level Indianapolis Center
Fri 03:04:15 PM 37.0644 -83.1547 207° Southwest 355 409 36,000  Level Indianapolis Center
Fri 03:05:18 PM 36.9781 -83.2114 208° Southwest 354 407 36,000  Level Indianapolis Center
Fri 03:06:18 PM 36.8911 -83.2664 207° Southwest 353 406 36,000  Level Indianapolis Center
Fri 03:07:22 PM 36.8033 -83.3228 207° Southwest 355 409 36,000  Level Indianapolis Center
Fri 03:08:24 PM 36.7011 -83.3886 207° Southwest 355 409 36,000  Level Indianapolis Center
Fri 03:09:27 PM 36.6125 -83.4450 207° Southwest 357 411 36,000  Level Indianapolis Center
Fri 03:10:28 PM 36.5236 -83.5022 207° Southwest 359 413 36,000  Level Indianapolis Center
Fri 03:11:29 PM 36.4406 -83.5544 207° Southwest 356 410 36,000  Level Indianapolis Center
Fri 03:12:33 PM 36.3342 -83.6222 207° Southwest 356 410 36,000  Level Indianapolis Center
Fri 03:13:34 PM 36.2444 -83.6783 207° Southwest 358 412 36,000  Level Indianapolis Center
Fri 03:14:37 PM 36.1558 -83.7353 207° Southwest 358 412 36,000  Level Indianapolis Center
Fri 03:15:38 PM 36.0672 -83.7908 207° Southwest 356 410 36,000  Level Indianapolis Center
Fri 03:16:41 PM 35.9778 -83.8481 207° Southwest 359 413 36,000  Level Indianapolis Center
Fri 03:17:41 PM 35.8856 -83.8975 203° Southwest 360 414 36,000  Level Indianapolis Center
Fri 03:22:38 PM 35.2887 -84.0441 203° Southwest 382 440 36,000  Level FlightAware ADS-B (KDZJ)
Fri 03:23:17 PM 35.2194 -84.0608 191° South 392 451 36,000  Level FlightAware ADS-B (KDZJ)
Fri 03:23:57 PM 35.1479 -84.0779 191° South 393 452 36,000  Level FlightAware ADS-B (KDZJ)
Fri 03:24:38 PM 35.0740 -84.0955 191° South 393 452 36,000  Level FlightAware ADS-B (KDZJ)
Fri 03:25:24 PM 34.9934 -84.1147 191° South 392 451 36,000  Level FlightAware ADS-B (KDZJ)
Fri 03:25:57 PM 34.9333 -84.1290 191° South 391 450 36,000  Level FlightAware ADS-B (KDZJ)
Fri 03:26:41 PM 34.8549 -84.1477 191° South 391 450 36,000  Level FlightAware ADS-B (KDZJ)
Fri 03:27:18 PM 34.7900 -84.1632 191° South 381 438 36,000  Level FlightAware ADS-B (KDZJ)
Fri 03:28:01 PM 34.7148 -84.1810 191° South 380 437 36,000  Level FlightAware ADS-B (KDZJ)
Fri 03:28:41 PM 34.6444 -84.1979 191° South 390 449 36,000  Level FlightAware ADS-B (KDZJ)
Fri 03:29:17 PM 34.5790 -84.2133 191° South 391 450 36,000  Level FlightAware ADS-B (KDZJ)
Fri 03:30:00 PM 34.5031 -84.2312 191° South 391 450 36,000  Level FlightAware ADS-B (KDZJ)
Fri 03:30:43 PM 34.4267 -84.2492 191° South 393 452 36,000  Level FlightAware ADS-B (KDZJ)
Fri 03:31:24 PM 34.3543 -84.2662 191° South 394 453 36,000  Level FlightAware ADS-B (KDZJ)
Fri 03:32:03 PM 34.2833 -84.2828 191° South 394 453 36,000  Level FlightAware ADS-B (KDZJ)
Fri 03:32:44 PM 34.2107 -84.2998 191° South 394 453 36,000  Level FlightAware ADS-B (KDZJ)
Fri 03:33:23 PM 34.1395 -84.3165 191° South 395 455 36,000  Level FlightAware ADS-B (KDZJ)
Fri 03:34:04 PM 34.0675 -84.3334 191° South 395 455 36,000  Level FlightAware ADS-B (KDZJ)
Fri 03:34:45 PM 33.9933 -84.3506 191° South 396 456 36,000  Level FlightAware ADS-B (KDZJ)
Fri 03:35:57 PM 33.9358 -84.3644 191° South 399 459 36,000  Level Atlanta Center
Fri 03:36:57 PM 33.8272 -84.3914 192° South 392 451 36,000 250 Level Atlanta Center
Fri 03:37:57 PM 33.7206 -84.4158 191° South 397 457 36,500 450 Climbing Atlanta Center
Fri 03:38:57 PM 33.6142 -84.4353 189° South 397 457 36,900 250 Climbing Atlanta Center
Fri 03:39:57 PM 33.4889 -84.4347 180° South 417 480 37,000 50 Climbing Atlanta Center
Fri 03:40:57 PM 33.3719 -84.4344 180° South 422 486 37,000  Level Atlanta Center
Fri 03:41:57 PM 33.2425 -84.4311 179° South 422 486 37,000  Level Atlanta Center
Fri 03:42:57 PM 33.1278 -84.4283 179° South 422 486 37,000  Level Atlanta Center
Fri 03:43:57 PM 33.0089 -84.4278 180° South 422 486 37,000  Level Atlanta Center
Fri 03:44:57 PM 32.8939 -84.4272 180° South 422 486 37,000  Level Atlanta Center
Fri 03:45:57 PM 32.7897 -84.4219 178° South 417 480 37,000  Level Atlanta Center
Fri 03:46:57 PM 32.6769 -84.4189 179° South 417 480 37,000  Level Atlanta Center
Fri 03:47:57 PM 32.5600 -84.4158 179° South 417 480 37,000  Level Atlanta Center
Fri 03:48:57 PM 32.4453 -84.4131 179° South 417 480 37,000  Level Atlanta Center
Fri 03:51:23 PM 32.1617 -84.4067 179° South 414 476 37,000  Level Jacksonville Center
Fri 03:52:23 PM 32.0469 -84.4047 179° South 414 476 37,000  Level Jacksonville Center
Fri 03:53:23 PM 31.9300 -84.4006 178° South 419 482 37,000  Level Jacksonville Center
Fri 03:54:23 PM 31.8136 -84.3547 161° South 424 488 37,000  Level Jacksonville Center
Fri 03:55:23 PM 31.6931 -84.3014 159° South 436 502 37,000  Level Jacksonville Center
Fri 04:00:51 PM 31.0523 -84.0221 159° South 451 519 37,000  Level FlightAware ADS-B (KONZ)
Fri 04:01:26 PM 30.9586 -83.9821 160° South 449 517 37,000  Level FlightAware ADS-B (KONZ)
Fri 04:02:11 PM 30.8714 -83.9450 160° South 450 518 37,000  Level FlightAware ADS-B (KONZ)
Fri 04:02:50 PM 30.7952 -83.9127 160° South 450 518 37,000  Level FlightAware ADS-B (KONZ)
Fri 04:03:32 PM 30.7315 -83.8856 160° South 450 518 37,000  Level FlightAware ADS-B (KONZ)
Fri 04:04:11 PM 30.6418 -83.8477 160° South 449 517 37,000  Level FlightAware ADS-B (KONZ)
Fri 04:04:50 PM 30.5605 -83.8133 160° South 449 517 37,000  Level FlightAware ADS-B (KONZ)
Fri 04:05:32 PM 30.4776 -83.7783 160° South 451 519 37,000  Level FlightAware ADS-B (KONZ)
Fri 04:06:10 PM 30.4071 -83.7486 160° South 452 520 37,000  Level FlightAware ADS-B (KONZ)
Fri 04:06:46 PM 30.3327 -83.7173 160° South 453 521 37,000  Level FlightAware ADS-B (KONZ)
Fri 04:07:26 PM 30.2523 -83.6836 160° South 455 524 37,000  Level FlightAware ADS-B (KONZ)
Fri 04:08:23 PM 30.1578 -83.6469 160° South 453 521 37,000  Level Jacksonville Center
Fri 04:09:23 PM 30.0411 -83.5956 159° South 453 521 37,000  Level Jacksonville Center
Fri 04:10:23 PM 29.9225 -83.5469 160° South 453 521 37,000  Level Jacksonville Center
Fri 04:11:23 PM 29.8017 -83.4981 161° South 453 521 37,000  Level Jacksonville Center
Fri 04:12:23 PM 29.6828 -83.4494 160° South 453 521 37,000  Level Jacksonville Center
Fri 04:13:23 PM 29.5472 -83.3939 160° South 460 529 37,000  Level Jacksonville Center
Fri 04:14:23 PM 29.4306 -83.3433 159° South 460 529 37,000  Level Jacksonville Center
Fri 04:20:43 PM 28.6509 -83.0228 159° South 464 534 37,000  Level FlightAware ADS-B
Fri 04:22:59 PM 28.3748 -82.9111 160° South 464 534 37,000  Level FlightAware ADS-B
Fri 04:24:01 PM 28.2503 -82.8609 160° South 462 532 37,000  Level FlightAware ADS-B
Fri 04:25:22 PM 28.0885 -82.7958 160° South 463 533 37,000  Level FlightAware ADS-B
Fri 04:26:19 PM 27.9884 -82.7557 161° South 466 536 37,000  Level FlightAware ADS-B
Fri 04:27:43 PM 27.7993 -82.6846 162° South 469 540 37,000  Level FlightAware ADS-B
Fri 04:28:24 PM 27.7209 -82.6811 178° South 448 516 37,000  Level FlightAware ADS-B
Fri 04:34:18 PM 27.0049 -82.6488 178° South 447 514 37,000  Level FlightAware ADS-B
Fri 04:35:22 PM 26.8455 -82.6418 178° South 448 516 37,000  Level FlightAware ADS-B
Fri 04:37:43 PM 26.5549 -82.6290 178° South 452 520 37,000  Level FlightAware ADS-B
Fri 04:38:24 PM 26.4697 -82.6253 178° South 454 522 37,000  Level FlightAware ADS-B
Fri 04:39:03 PM 26.3844 -82.6215 178° South 455 524 37,000  Level FlightAware ADS-B
Fri 04:39:42 PM 26.3037 -82.6179 178° South 456 525 37,000  Level FlightAware ADS-B
Fri 04:42:04 PM 26.0010 -82.6048 178° South 454 522 37,000  Level FlightAware ADS-B
Fri 04:42:43 PM 25.9204 -82.6012 178° South 453 521 37,000  Level FlightAware ADS-B
Fri 04:43:24 PM 25.8323 -82.5973 178° South 452 520 37,000  Level FlightAware ADS-B
Fri 04:44:03 PM 25.7629 -82.5943 178° South 452 520 37,000  Level FlightAware ADS-B
Fri 04:44:43 PM 25.6732 -82.5903 178° South 452 520 37,000  Level FlightAware ADS-B
Fri 04:45:23 PM 25.5839 -82.5865 178° South 451 519 37,000  Level FlightAware ADS-B
Fri 04:46:42 PM 25.4186 -82.5794 178° South 451 519 37,000  Level FlightAware ADS-B
Fri 04:47:35 PM 25.3085 -82.5747 178° South 453 521 37,000  Level FlightAware ADS-B
Fri 04:48:50 PM 25.1714 -82.5722 178° South 460 529 37,000 -400 Level Miami Center
Fri 04:49:50 PM 25.0464 -82.5686 179° South 460 529 36,100 -1,350 Descending Miami Center
Fri 04:50:50 PM 24.9233 -82.5628 178° South 453 521 34,300 -1,550 Descending Miami Center
Fri 04:51:50 PM 24.8067 -82.5553 177° South 441 507 33,000 -1,450 Descending Miami Center
Fri 04:52:50 PM 24.6939 -82.5547 180° South 428 493 31,400 -1,500 Descending Miami Center
Fri 04:53:50 PM 24.5858 -82.5472 176° South 406 467 30,000 -1,650 Descending Miami Center
Fri 04:54:50 PM 24.4794 -82.5425 178° South 396 456 28,100 -1,750 Descending Miami Center
Fri 04:55:50 PM 24.3731 -82.5375 178° South 385 443 26,500 -1,500 Descending Miami Center
Fri 04:56:50 PM 24.2708 -82.5353 179° South 380 437 25,100 -1,400 Descending Miami Center
Fri 04:58:00 PM 24.1327 -82.5216 175° South  Level Estimated
Fri 05:05:00 PM 23.3040 -82.4399 175° South  Level Estimated
Fri 05:06:00 PM 23.1856 -82.4283 175° South  Level Estimated
Fri 05:07:00 PM 23.0672 -82.4167 175° South  Level Estimated
Fri 05:08:00 PM 22.9891 -82.4091 175° South  Level Estimated
Fri 05:09:00 PM 22.9891 -82.4091 51° Northeast  Level Estimated
Fri 05:10:00 PM 22.9891 -82.4091 51° Northeast  Level Estimated
Fri 05:11:00 PM 22.9891 -82.4091 51° Northeast  Level Estimated
Fri 05:12:00 PM 22.9891 -82.4091 51° Northeast  Level Estimated
Fri 05:13:00 PM 22.9891 -82.4091 51° Northeast  Level Estimated
Fri 05:14:00 PM 22.9891 -82.4091 51° Northeast  Level Estimated
Fri 05:15:00 PM 22.9891 -82.4091 51° Northeast  Level Estimated
Fri 05:16:00 PM 22.9891 -82.4091 51° Northeast  Level Estimated
Fri 05:17:00 PM 22.9891 -82.4091 51° Northeast  Level Estimated
Fri 05:18:00 PM 22.9891 -82.4091 51° Northeast  Level Estimated
Fri 05:19:00 PM 22.9891 -82.4091 51° Northeast  Level Estimated
Fri 05:20:00 PM 22.9891 -82.4091 51° Northeast  Level Estimated
Fri 05:21:00 PM 22.9891 -82.4091 51° Northeast  Level Estimated
Fri 05:22:00 PM 22.9891 -82.4091 51° Northeast  Level Estimated
Fri 05:23:00 PM 22.9891 -82.4091 51° Northeast  Level Estimated
Fri 05:24:00 PM 22.9891 -82.4091 51° Northeast  Level Estimated
Fri 05:25:00 PM 22.9891 -82.4091 51° Northeast  Level Estimated
Fri 05:26:00 PM 22.9891 -82.4091 51° Northeast  Level Estimated
Fri 05:27:00 PM 22.9891 -82.4091 51° Northeast  Level Estimated
Fri 05:28:00 PM 22.9891 -82.4091 51° Northeast  Level Estimated
Fri 05:29:00 PM 22.9891 -82.4091 51° Northeast  Level Estimated
Fri 05:30:00 PM 22.9891 -82.4091 51° Northeast  Level Estimated
Fri 05:31:00 PM 22.9891 -82.4091 51° Northeast  Level Estimated
Fri 05:32:00 PM 22.9891 -82.4091 51° Northeast  Level Estimated
Fri 05:33:00 PM 22.9891 -82.4091 51° Northeast  Level Estimated
Fri 05:34:00 PM 22.9891 -82.4091 51° Northeast  Level Estimated
Fri 05:35:00 PM 22.9891 -82.4091 51° Northeast  Level Estimated
Fri 05:36:00 PM 22.9891 -82.4091 51° Northeast  Level Estimated
Fri 05:37:00 PM 22.9891 -82.4091 51° Northeast  Level Estimated
Fri 05:38:00 PM 22.9891 -82.4091 51° Northeast  Level Estimated
Fri 05:39:00 PM 22.9891 -82.4091 51° Northeast  Level Estimated
Fri 05:40:00 PM 22.9891 -82.4091 51° Northeast  Level Estimated
Fri 05:41:00 PM 22.9891 -82.4091 51° Northeast  Level Estimated
Fri 05:42:00 PM 22.9891 -82.4091 51° Northeast  Level Estimated

Login

Don't have an account? Register now (free) for customized features, flight alerts, and more!